createdAt,value
2024-02-08T00:01:18.024Z,98482.78
2024-02-08T00:03:47.258Z,98561.03
2024-02-08T00:06:15.221Z,98430.91
2024-02-08T00:08:43.015Z,98525.69
2024-02-08T00:11:10.952Z,98565.28
2024-02-08T00:13:38.814Z,98564.38
2024-02-08T00:16:07.409Z,98575.22
2024-02-08T00:18:37.665Z,98562.72
2024-02-08T00:21:10.694Z,98526.66
2024-02-08T00:23:39.265Z,98492.25
2024-02-08T00:26:09.607Z,98501.78
2024-02-08T00:28:37.501Z,98454.34
2024-02-08T00:31:06.132Z,98388.03
2024-02-08T00:33:35.096Z,98550.44
2024-02-08T00:36:03.456Z,98557.88
2024-02-08T00:38:32.875Z,98548.66
2024-02-08T00:41:00.962Z,98551.19
2024-02-08T00:43:29.179Z,98545.97
2024-02-08T00:45:56.975Z,98337.16
2024-02-08T00:48:26.045Z,98542.47
2024-02-08T00:50:55.782Z,98492.53
2024-02-08T00:53:23.804Z,98389.09
2024-02-08T00:55:53.506Z,98418.34
2024-02-08T00:58:22.987Z,98519.09
2024-02-08T01:00:54.363Z,98517.19
2024-02-08T01:03:24.779Z,98188.59
2024-02-08T01:05:54.622Z,98331.06
2024-02-08T01:08:23.839Z,98368.63
2024-02-08T01:10:53.304Z,98527.97
2024-02-08T01:13:21.347Z,98430.16
2024-02-08T01:15:50.754Z,98276.50
2024-02-08T01:18:21.923Z,98433.50
2024-02-08T01:20:51.375Z,98627.97
2024-02-08T01:23:21.007Z,98453.50
2024-02-08T01:25:49.284Z,98417.31
2024-02-08T01:28:19.556Z,98451.47
2024-02-08T01:30:48.271Z,98338.41
2024-02-08T01:33:16.051Z,98262.81
2024-02-08T01:35:43.960Z,98134.69
2024-02-08T01:38:14.710Z,98518.75
2024-02-08T01:40:43.597Z,98533.19
2024-02-08T01:43:12.276Z,98361.47
2024-02-08T01:45:42.705Z,98522.31
2024-02-08T01:48:13.077Z,98504.66
2024-02-08T01:50:43.177Z,98528.50
2024-02-08T01:53:15.530Z,98478.41
2024-02-08T01:55:51.946Z,98475.56
2024-02-08T01:58:21.796Z,98540.84
2024-02-08T02:00:52.141Z,98542.56
2024-02-08T02:03:21.419Z,98579.84
2024-02-08T02:05:49.440Z,98210.41
2024-02-08T02:08:18.746Z,98415.72
2024-02-08T02:10:46.902Z,98068.88
2024-02-08T02:13:14.765Z,98388.69
2024-02-08T02:15:42.586Z,98469.81
2024-02-08T02:18:13.552Z,98493.75
2024-02-08T02:20:41.442Z,98225.22
2024-02-08T02:23:11.127Z,98540.63
2024-02-08T02:25:41.203Z,98531.53
2024-02-08T02:28:11.302Z,98417.88
2024-02-08T02:30:41.624Z,98293.34
2024-02-08T02:33:10.281Z,98236.63
2024-02-08T02:35:38.502Z,98497.56
2024-02-08T02:43:59.792Z,98463.47
2024-02-08T02:47:08.636Z,98514.84
2024-02-08T02:49:38.792Z,98322.97
2024-02-08T02:52:09.711Z,98496.06
2024-02-08T02:54:38.168Z,98517.38
2024-02-08T02:57:07.727Z,98529.59
2024-02-08T02:59:35.691Z,98498.41
2024-02-08T03:02:03.511Z,98444.75
2024-02-08T03:04:32.664Z,98482.38
2024-02-08T03:07:00.602Z,98501.84
2024-02-08T03:09:29.930Z,98243.75
2024-02-08T03:11:59.412Z,98389.19
2024-02-08T03:14:28.967Z,98496.47
2024-02-08T03:17:02.669Z,98486.06
2024-02-08T03:19:36.508Z,98477.34
2024-02-08T03:22:09.164Z,98432.72
2024-02-08T03:24:38.234Z,98162.09
2024-02-08T03:27:07.038Z,98479.28
2024-02-08T03:29:37.039Z,98387.44
2024-02-08T03:32:05.546Z,98477.25
2024-02-08T03:34:36.856Z,98261.69
2024-02-08T03:37:07.985Z,98490.19
2024-02-08T03:39:37.868Z,98364.59
2024-02-08T03:42:07.105Z,98481.97
2024-02-08T03:44:38.021Z,98287.34
2024-02-08T03:47:09.340Z,98497.63
2024-02-08T03:49:38.050Z,98186.09
2024-02-08T03:52:10.132Z,98473.25
2024-02-08T03:54:38.698Z,98475.03
2024-02-08T03:57:08.708Z,98243.16
2024-02-08T03:59:42.680Z,98125.34
2024-02-08T04:02:11.965Z,98413.38
2024-02-08T04:04:51.854Z,98202.63
2024-02-08T04:07:23.331Z,98099.16
2024-02-08T04:09:56.956Z,98410.91
2024-02-08T04:12:42.750Z,98431.94
2024-02-08T04:15:29.803Z,98396.16
2024-02-08T04:18:15.602Z,98463.97
2024-02-08T04:21:01.597Z,98350.56
2024-02-08T04:23:46.696Z,98453.56
2024-02-08T04:26:33.313Z,98457.97
2024-02-08T04:29:19.237Z,98257.06
2024-02-08T04:32:07.968Z,98467.50
2024-02-08T04:34:58.167Z,98350.63
2024-02-08T04:37:44.063Z,98371.94
2024-02-08T04:40:33.242Z,98457.00
2024-02-08T04:43:19.191Z,98446.56
2024-02-08T04:46:05.071Z,98472.63
2024-02-08T04:48:52.519Z,98486.38
2024-02-08T04:51:44.359Z,98089.63
2024-02-08T04:54:12.729Z,98398.03
2024-02-08T04:56:40.651Z,98423.50
2024-02-08T04:59:21.481Z,98531.84
2024-02-08T05:01:51.575Z,98343.63
2024-02-08T05:04:24.886Z,98466.50
2024-02-08T05:06:54.888Z,98472.19
2024-02-08T05:09:23.144Z,98255.06
2024-02-08T05:11:51.174Z,98412.38
2024-02-08T05:14:22.105Z,98419.22
2024-02-08T05:16:56.026Z,98486.38
2024-02-08T05:19:28.477Z,98441.09
2024-02-08T05:22:00.533Z,98461.06
2024-02-08T05:24:29.834Z,98448.91
2024-02-08T05:26:57.865Z,98440.28
2024-02-08T05:29:30.268Z,98367.31
2024-02-08T05:32:05.720Z,98442.06
2024-02-08T05:34:52.131Z,98428.22
2024-02-08T05:37:26.958Z,98138.00
2024-02-08T05:39:54.916Z,98445.69
2024-02-08T05:42:25.670Z,98431.75
2024-02-08T05:45:14.066Z,98439.72
2024-02-08T05:47:42.102Z,98448.59
2024-02-08T05:50:22.732Z,98416.25
2024-02-08T05:52:53.142Z,98412.78
2024-02-08T05:55:21.578Z,98365.25
2024-02-08T05:57:49.694Z,98308.34
2024-02-08T06:00:33.747Z,98500.66
2024-02-08T06:03:07.864Z,98396.50
2024-02-08T06:05:42.078Z,98370.88
2024-02-08T06:08:26.847Z,98523.28
2024-02-08T06:10:56.321Z,98409.47
2024-02-08T06:13:27.706Z,98387.63
2024-02-08T06:16:03.177Z,98385.16
2024-02-08T06:18:35.086Z,98281.59
2024-02-08T06:21:14.550Z,98411.31
2024-02-08T06:23:46.190Z,98321.94
2024-02-08T06:26:28.891Z,98085.00
2024-02-08T06:28:56.752Z,98272.13
2024-02-08T06:31:34.322Z,98267.19
2024-02-08T06:34:28.135Z,98212.50
2024-02-08T06:37:17.351Z,98102.47
2024-02-08T06:39:49.133Z,98364.28
2024-02-08T06:42:31.042Z,98407.91
2024-02-08T06:45:16.437Z,98323.69
2024-02-08T06:48:16.970Z,98018.66
2024-02-08T06:51:02.729Z,98289.97
2024-02-08T06:53:49.661Z,98389.66
2024-02-08T06:56:35.137Z,98308.97
2024-02-08T06:59:20.522Z,98487.81
2024-02-08T07:02:06.184Z,98297.88
2024-02-08T07:04:52.098Z,98139.34
2024-02-08T07:07:37.872Z,98381.97
2024-02-08T07:10:26.942Z,98400.44
2024-02-08T07:13:15.835Z,98371.84
2024-02-08T07:16:02.402Z,98396.84
2024-02-08T07:18:52.402Z,98403.75
2024-02-08T07:21:41.199Z,98359.28
2024-02-08T07:24:27.867Z,98335.38
2024-02-08T07:27:14.774Z,98405.91
2024-02-08T07:30:00.596Z,98325.66
2024-02-08T07:32:45.965Z,98410.97
2024-02-08T07:35:33.723Z,98146.31
2024-02-08T07:38:01.600Z,98407.34
2024-02-08T07:40:36.243Z,98233.47
2024-02-08T07:43:35.895Z,98333.19
2024-02-08T07:46:06.545Z,98125.09
2024-02-08T07:48:45.212Z,98176.00
2024-02-08T07:51:17.056Z,98103.28
2024-02-08T07:53:53.036Z,98357.09
2024-02-08T07:56:38.476Z,98063.31
2024-02-08T07:59:17.107Z,98355.38
2024-02-08T08:01:50.583Z,98319.25
2024-02-08T08:04:44.138Z,98422.03
2024-02-08T08:07:13.840Z,98287.69
2024-02-08T08:09:42.578Z,98348.09
2024-02-08T08:12:10.567Z,98246.94
2024-02-08T08:15:14.209Z,98262.09
2024-02-08T08:17:45.707Z,98146.50
2024-02-08T08:20:33.730Z,98335.09
2024-02-08T08:23:01.878Z,98310.94
2024-02-08T08:25:46.334Z,98325.47
2024-02-08T08:28:30.531Z,98230.13
2024-02-08T08:31:18.542Z,98123.06
2024-02-08T08:34:01.402Z,98212.81
2024-02-08T08:36:35.970Z,98306.59
2024-02-08T08:39:21.743Z,98300.28
2024-02-08T08:41:50.202Z,98296.50
2024-02-08T08:44:19.991Z,98054.69
2024-02-08T08:46:49.428Z,98209.00
2024-02-08T08:49:22.689Z,98274.50
2024-02-08T08:52:00.968Z,98216.25
2024-02-08T08:54:31.379Z,98095.91
2024-02-08T08:56:59.246Z,98206.41
2024-02-08T08:59:30.669Z,98237.31
2024-02-08T09:02:01.905Z,98003.44
2024-02-08T09:04:37.203Z,98239.53
2024-02-08T09:07:12.485Z,98241.94
2024-02-08T09:09:55.101Z,98237.50
2024-02-08T09:12:29.662Z,98250.56
2024-02-08T09:15:22.329Z,98257.88
2024-02-08T09:17:54.334Z,98239.44
2024-02-08T09:20:22.109Z,98240.16
2024-02-08T09:22:53.468Z,97945.63
2024-02-08T09:25:31.135Z,98222.75
2024-02-08T09:28:26.447Z,97900.56
2024-02-08T09:30:58.205Z,97878.75
2024-02-08T09:33:37.235Z,98120.53
2024-02-08T09:36:05.909Z,98184.75
2024-02-08T09:38:45.832Z,98213.22
2024-02-08T09:41:17.397Z,98077.00
2024-02-08T09:43:47.524Z,98126.09
2024-02-08T09:46:39.337Z,98100.47
2024-02-08T09:49:14.225Z,98193.59
2024-02-08T09:51:57.020Z,98143.72
2024-02-08T09:54:33.550Z,97958.34
2024-02-08T09:57:23.855Z,97983.84
2024-02-08T10:00:06.031Z,97789.47
2024-02-08T10:02:38.381Z,97976.81
2024-02-08T10:05:42.149Z,98094.78
2024-02-08T10:08:11.779Z,98158.25
2024-02-08T10:10:46.063Z,97835.94
2024-02-08T10:13:28.720Z,98137.50
2024-02-08T10:16:04.766Z,98163.56
2024-02-08T10:18:39.531Z,98135.50
2024-02-08T10:21:15.197Z,98093.25
2024-02-08T10:23:49.591Z,97957.06
2024-02-08T10:26:28.180Z,97851.63
2024-02-08T10:28:57.172Z,98001.75
2024-02-08T10:31:25.292Z,98117.66
2024-02-08T10:33:58.927Z,98129.66
2024-02-08T10:36:36.856Z,98086.38
2024-02-08T10:39:25.262Z,97959.16
2024-02-08T10:42:00.132Z,98008.31
2024-02-08T10:44:34.628Z,98138.38
2024-02-08T10:47:09.353Z,97927.63
2024-02-08T10:49:44.308Z,98002.28
2024-02-08T10:52:17.358Z,98072.56
2024-02-08T10:54:50.740Z,98072.03
2024-02-08T10:57:32.672Z,98041.09
2024-02-08T11:00:01.162Z,97993.78
2024-02-08T11:02:37.075Z,97613.22
2024-02-08T11:05:43.714Z,98014.97
2024-02-08T11:08:25.164Z,97948.88
2024-02-08T11:10:55.652Z,97866.66
2024-02-08T11:13:30.548Z,97995.78
2024-02-08T11:16:21.090Z,97944.97
2024-02-08T11:18:52.443Z,98016.50
2024-02-08T11:21:25.733Z,97960.84
2024-02-08T11:23:58.829Z,97921.75
2024-02-08T11:26:28.720Z,97861.88
2024-02-08T11:29:03.743Z,98014.34
2024-02-08T11:31:34.048Z,97996.88
2024-02-08T11:34:15.613Z,97878.31
2024-02-08T11:36:45.304Z,98007.38
2024-02-08T11:39:32.813Z,97955.09
2024-02-08T11:42:02.115Z,97970.69
2024-02-08T11:44:37.215Z,98007.06
2024-02-08T11:47:19.587Z,97897.53
2024-02-08T11:50:02.590Z,97995.03
2024-02-08T11:52:31.578Z,97849.53
2024-02-08T11:55:11.437Z,97957.44
2024-02-08T11:57:42.301Z,97766.44
2024-02-08T12:00:26.080Z,97784.41
2024-02-08T12:03:09.505Z,97928.06
2024-02-08T12:05:42.808Z,97938.19
2024-02-08T12:08:12.000Z,97774.59
2024-02-08T12:10:43.894Z,97974.50
2024-02-08T12:13:15.364Z,97825.06
2024-02-08T12:15:57.304Z,97844.72
2024-02-08T12:18:30.100Z,97982.38
2024-02-08T12:21:01.713Z,97894.56
2024-02-08T12:23:33.571Z,97818.09
2024-02-08T12:26:05.654Z,97831.03
2024-02-08T12:28:36.805Z,97888.47
2024-02-08T12:31:09.162Z,97853.84
2024-02-08T12:33:37.412Z,97897.13
2024-02-08T12:36:05.957Z,97897.91
2024-02-08T12:38:39.067Z,97832.25
2024-02-08T12:41:08.698Z,97898.38
2024-02-08T12:43:38.724Z,97842.72
2024-02-08T12:46:08.884Z,97893.00
2024-02-08T12:48:37.170Z,97773.34
2024-02-08T12:51:05.536Z,97791.03
2024-02-08T12:53:33.519Z,97850.69
2024-02-08T12:56:20.362Z,97867.53
2024-02-08T12:58:48.254Z,97857.13
2024-02-08T13:01:20.446Z,97854.50
2024-02-08T13:03:50.587Z,97854.34
2024-02-08T13:06:18.894Z,97746.91
2024-02-08T13:08:47.434Z,97776.72
2024-02-08T13:11:22.713Z,97721.25
2024-02-08T13:13:54.150Z,97834.47
2024-02-08T13:16:22.008Z,97690.59
2024-02-08T13:18:56.007Z,97808.53
2024-02-08T13:21:26.356Z,97780.44
2024-02-08T13:23:57.066Z,97757.22
2024-02-08T13:26:33.218Z,97795.91
2024-02-08T13:29:04.934Z,97801.59
2024-02-08T13:31:32.833Z,97805.00
2024-02-08T13:34:02.467Z,97793.72
2024-02-08T13:36:30.562Z,97793.81
2024-02-08T13:38:58.554Z,97752.75
2024-02-08T13:41:30.087Z,97584.81
2024-02-08T13:43:58.057Z,97462.75
2024-02-08T13:46:26.550Z,97756.31
2024-02-08T13:48:55.963Z,97607.88
2024-02-08T13:51:24.030Z,97501.19
2024-02-08T13:53:52.209Z,97553.03
2024-02-08T13:56:19.972Z,97755.34
2024-02-08T13:58:49.696Z,97800.56
2024-02-08T14:01:27.433Z,97652.91
2024-02-08T14:04:00.078Z,97772.41
2024-02-08T14:06:28.592Z,97738.31
2024-02-08T14:09:16.950Z,97726.03
2024-02-08T14:11:53.472Z,97665.59
2024-02-08T14:14:30.627Z,97606.19
2024-02-08T14:16:59.997Z,97601.47
2024-02-08T14:19:35.072Z,97457.84
2024-02-08T14:22:07.561Z,97432.41
2024-02-08T14:24:40.531Z,97601.94
2024-02-08T14:27:08.539Z,97651.00
2024-02-08T14:29:40.222Z,97314.56
2024-02-08T14:32:16.929Z,97698.13
2024-02-08T14:34:56.375Z,97411.56
2024-02-08T14:37:29.638Z,97680.34
2024-02-08T14:39:58.661Z,97669.47
2024-02-08T14:42:38.728Z,97661.53
2024-02-08T14:48:02.819Z,97437.50
2024-02-08T14:50:48.361Z,97597.97
2024-02-08T14:53:17.628Z,97565.22
2024-02-08T14:55:46.813Z,97627.19
2024-02-08T14:58:28.855Z,97610.63
2024-02-08T15:01:10.295Z,97475.38
2024-02-08T15:03:39.900Z,97315.84
2024-02-08T15:06:29.843Z,97639.72
2024-02-08T15:09:17.770Z,97352.19
2024-02-08T15:11:59.178Z,97501.81
2024-02-08T15:14:37.059Z,97525.69
2024-02-08T15:17:12.463Z,97599.25
2024-02-08T15:19:47.098Z,97422.81
2024-02-08T15:22:38.123Z,97573.66
2024-02-08T15:25:06.883Z,97547.34
2024-02-08T15:27:48.868Z,97564.09
2024-02-08T15:30:19.471Z,97288.97
2024-02-08T15:33:00.357Z,97349.34
2024-02-08T15:35:37.464Z,97546.69
2024-02-08T15:38:43.549Z,97578.63
2024-02-08T15:41:20.541Z,97547.16
2024-02-08T15:43:49.677Z,97504.59
2024-02-08T15:46:20.945Z,97378.94
2024-02-08T15:49:01.395Z,97363.91
2024-02-08T15:51:38.251Z,97234.44
2024-02-08T15:54:09.870Z,97337.59
2024-02-08T15:56:41.656Z,97434.56
2024-02-08T15:59:14.143Z,97521.53
2024-02-08T16:01:58.789Z,97431.03
2024-02-08T16:04:46.647Z,97442.63
2024-02-08T16:07:17.074Z,97448.53
2024-02-08T16:09:48.104Z,97540.94
2024-02-08T16:12:24.033Z,97464.09
2024-02-08T16:15:01.858Z,97469.97
2024-02-08T16:17:40.828Z,97518.44
2024-02-08T16:20:25.048Z,97424.19
2024-02-08T16:23:05.929Z,97490.78
2024-02-08T16:26:07.604Z,97499.69
2024-02-08T16:28:38.943Z,97407.91
2024-02-08T16:31:21.739Z,97390.81
2024-02-08T16:33:56.751Z,97514.59
2024-02-08T16:36:46.035Z,97446.03
2024-02-08T16:39:34.920Z,97480.22
2024-02-08T16:42:03.032Z,97423.22
2024-02-08T16:44:39.745Z,97292.50
2024-02-08T16:47:29.051Z,97249.16
2024-02-08T16:50:00.384Z,97359.88
2024-02-08T16:52:47.651Z,97463.53
2024-02-08T16:55:24.002Z,97458.81
2024-02-08T16:58:02.233Z,97301.75
2024-02-08T17:00:40.257Z,97415.72
2024-02-08T17:03:28.392Z,97415.03
2024-02-08T17:05:58.276Z,97472.56
2024-02-08T17:08:41.542Z,97467.94
2024-02-08T17:11:17.544Z,97464.38
2024-02-08T17:13:53.571Z,97437.34
2024-02-08T17:16:36.985Z,97169.44
2024-02-08T17:19:24.055Z,97475.03
2024-02-08T17:22:12.972Z,97477.50
2024-02-08T17:24:54.145Z,97425.44
2024-02-08T17:27:39.837Z,97360.38
2024-02-08T17:30:28.785Z,97410.00
2024-02-08T17:33:05.884Z,97178.50
2024-02-08T17:35:35.689Z,97152.63
2024-02-08T17:38:17.631Z,97293.63
2024-02-08T17:41:01.685Z,97424.75
2024-02-08T17:43:39.814Z,97005.47
2024-02-08T17:46:11.939Z,97342.41
2024-02-08T17:48:43.915Z,97151.81
2024-02-08T17:51:15.054Z,97418.75
2024-02-08T17:53:46.481Z,97269.19
2024-02-08T17:56:21.229Z,97429.25
2024-02-08T17:58:49.350Z,97484.34
2024-02-08T18:01:20.255Z,97449.56
2024-02-08T18:03:48.643Z,97456.28
2024-02-08T18:06:18.010Z,97456.88
2024-02-08T18:08:47.875Z,97462.06
2024-02-08T18:11:17.890Z,97376.16
2024-02-08T18:13:46.947Z,97269.97
2024-02-08T18:16:15.412Z,97412.28
2024-02-08T18:18:43.634Z,97476.38
2024-02-08T18:21:15.930Z,97383.78
2024-02-08T18:23:46.992Z,97477.06
2024-02-08T18:26:28.877Z,97470.69
2024-02-08T18:29:05.415Z,97504.75
2024-02-08T18:31:36.446Z,97476.94
2024-02-08T18:34:08.236Z,97416.59
2024-02-08T18:36:42.108Z,97166.59
2024-02-08T18:39:26.812Z,97478.31
2024-02-08T18:42:00.260Z,97309.22
2024-02-08T18:44:37.391Z,97477.56
2024-02-08T18:47:09.131Z,97470.41
2024-02-08T18:49:40.115Z,97480.94
2024-02-08T18:52:09.366Z,97388.28
2024-02-08T18:57:27.491Z,97457.03
2024-02-08T18:59:57.880Z,97489.56
2024-02-08T19:02:26.652Z,97359.50
2024-02-08T19:04:57.905Z,97453.78
2024-02-08T19:07:26.933Z,97499.38
2024-02-08T19:09:56.197Z,97224.81
2024-02-08T19:12:27.623Z,97370.94
2024-02-08T19:15:00.974Z,97462.25
2024-02-08T19:17:43.071Z,97346.78
2024-02-08T19:20:20.324Z,97457.56
2024-02-08T19:22:49.093Z,97414.03
2024-02-08T19:25:20.308Z,97087.06
2024-02-08T19:27:50.877Z,97349.66
2024-02-08T19:30:24.225Z,97444.25
2024-02-08T19:32:52.942Z,97222.19
2024-02-08T19:35:23.986Z,97456.69
2024-02-08T19:37:55.938Z,97447.81
2024-02-08T19:40:24.221Z,97425.91
2024-02-08T19:42:52.254Z,97438.22
2024-02-08T19:45:32.274Z,97441.69
2024-02-08T19:48:02.130Z,97091.53
2024-02-08T19:50:39.422Z,97343.72
2024-02-08T19:53:07.725Z,97365.19
2024-02-08T19:55:40.087Z,97433.91
2024-02-08T19:58:09.560Z,97354.66
2024-02-08T20:00:45.316Z,97321.91
2024-02-08T20:03:21.985Z,97304.97
2024-02-08T20:06:04.736Z,97435.13
2024-02-08T20:08:36.189Z,97426.66
2024-02-08T20:11:13.129Z,97196.88
2024-02-08T20:13:42.295Z,97234.19
2024-02-08T20:16:14.513Z,97438.78
2024-02-08T20:18:47.156Z,97056.59
2024-02-08T20:21:16.676Z,97439.19
2024-02-08T20:23:46.323Z,97432.16
2024-02-08T20:26:15.285Z,97433.84
2024-02-08T20:28:45.281Z,97519.66
2024-02-08T20:31:18.872Z,97394.94
2024-02-08T20:33:47.184Z,97215.81
2024-02-08T20:36:17.076Z,97060.94
2024-02-08T20:38:46.174Z,97270.06
2024-02-08T20:41:19.893Z,97043.63
2024-02-08T20:43:51.689Z,97383.53
2024-02-08T20:46:30.587Z,97425.66
2024-02-08T20:48:58.913Z,97188.06
2024-02-08T20:51:29.663Z,97423.69
2024-02-08T20:53:57.852Z,97428.78
2024-02-08T20:56:27.514Z,97397.53
2024-02-08T20:58:56.882Z,97313.44
2024-02-08T21:01:26.716Z,97425.28
2024-02-08T21:03:57.281Z,97368.03
2024-02-08T21:06:26.250Z,97310.28
2024-02-08T21:08:54.818Z,97070.72
2024-02-08T21:11:24.826Z,97369.06
2024-02-08T21:13:55.705Z,97355.66
2024-02-08T21:16:24.509Z,97417.69
2024-02-08T21:18:53.850Z,97333.81
2024-02-08T21:21:22.009Z,97410.72
2024-02-08T21:23:49.818Z,97297.88
2024-02-08T21:26:23.259Z,97369.56
2024-02-08T21:28:55.287Z,97410.41
2024-02-08T21:31:29.055Z,97344.22
2024-02-08T21:34:00.590Z,97356.63
2024-02-08T21:36:30.650Z,97166.88
2024-02-08T21:38:58.481Z,97401.75
2024-02-08T21:41:34.446Z,97403.53
2024-02-08T21:44:02.642Z,97379.41
2024-02-08T21:46:34.031Z,97401.09
2024-02-08T21:49:05.757Z,97148.63
2024-02-08T21:51:35.090Z,97400.97
2024-02-08T21:54:05.984Z,97347.59
2024-02-08T21:56:38.763Z,97199.00
2024-02-08T21:59:08.550Z,97338.88
2024-02-08T22:01:37.274Z,97370.47
2024-02-08T22:04:09.284Z,97386.53
2024-02-08T22:06:37.274Z,97347.13
2024-02-08T22:09:11.775Z,97305.97
2024-02-08T22:11:47.825Z,97373.19
2024-02-08T22:14:17.224Z,97374.03
2024-02-08T22:16:46.022Z,97375.31
2024-02-08T22:19:16.017Z,97267.91
2024-02-08T22:21:46.464Z,97263.94
2024-02-08T22:24:14.943Z,97126.53
2024-02-08T22:26:47.792Z,97341.53
2024-02-08T22:29:16.059Z,97296.00
2024-02-08T22:31:47.967Z,97315.03
2024-02-08T22:34:17.564Z,97339.25
2024-02-08T22:36:45.909Z,97181.06
2024-02-08T22:39:15.384Z,97203.81
2024-02-08T22:41:43.773Z,97224.94
2024-02-08T22:44:11.771Z,97085.88
2024-02-08T22:46:41.243Z,97273.25
2024-02-08T22:49:11.440Z,97316.31
2024-02-08T22:51:42.862Z,97324.59
2024-02-08T22:54:10.829Z,97309.28
2024-02-08T22:56:38.888Z,97314.44
2024-02-08T22:59:06.910Z,97256.50
2024-02-08T23:01:36.528Z,97186.81
2024-02-08T23:04:04.962Z,97390.81
2024-02-08T23:06:35.346Z,97306.81
2024-02-08T23:09:09.772Z,97100.50
2024-02-08T23:11:38.136Z,97252.88
2024-02-08T23:14:10.107Z,97288.75
2024-02-08T23:16:42.924Z,97194.94
2024-02-08T23:19:13.092Z,96984.78
2024-02-08T23:21:42.258Z,97276.78
2024-02-08T23:24:22.011Z,97282.31
2024-02-08T23:26:50.014Z,97236.78
2024-02-08T23:29:18.037Z,97298.38
2024-02-08T23:31:47.390Z,97234.97
2024-02-08T23:34:25.809Z,97273.16
2024-02-08T23:36:57.903Z,97270.44
2024-02-08T23:39:37.555Z,97270.38
2024-02-08T23:42:12.681Z,97241.34
2024-02-08T23:44:41.537Z,97256.31
2024-02-08T23:47:09.502Z,97212.16
2024-02-08T23:49:37.420Z,97222.34
2024-02-08T23:52:06.559Z,97183.38
2024-02-08T23:54:36.007Z,97161.47
2024-02-08T23:57:05.506Z,97260.63
2024-02-08T23:59:34.797Z,97253.69
